ADDS METAR Data INFO
IDs: Format: Raw Decoded Include TAF

Data at: 1528 UTC 18 Jun 2018

KEST 181523Z AUTO 33009KT 10SM BKN011 BKN120 23/21 A2997 RMK AO2 T02280211
KEST 181452Z AUTO 33007KT 10SM FEW008 22/21 A2996 RMK AO2 SLP135 60001 T02220206 50008
KEST 181420Z AUTO 30007KT 10SM SCT009 BKN038 BKN090 22/21 A2997 RMK AO2 T02170206
KEST 181352Z AUTO 28008KT 10SM SCT008 OVC013 22/21 A2997 RMK AO2 RAB32E41 SLP140 P0001 T02170211
KEST 181342Z AUTO 27008KT 10SM BKN008 OVC013 22/21 A2997 RMK AO2 RAB32E41 CIG 006V012 P0001 T02170206
KEST 181309Z AUTO 26005KT 10SM BKN010 BKN095 OVC120 21/21 A2995 RMK AO2 T02110206
KEST 181252Z AUTO 25004KT 10SM FEW011 SCT090 BKN120 21/21 A2994 RMK AO2 RAB09E25 SLP129 P0000 T02110206
KEST 181152Z AUTO 17006KT 10SM FEW070 FEW090 BKN120 21/21 A2993 RMK AO2 RAE32 SLP126 P0004 60116 70132 T02060206 10217 20200 50003
KEST 181052Z AUTO 00000KT 4SM -RA BR FEW050 SCT095 BKN110 21/20 A2993 RMK AO2 SLP127 P0013 T02060200
KEST 180952Z AUTO 00000KT 5SM -RA BR BKN060 OVC080 21/21 A2992 RMK AO2 LTG DSNT S SLP121 P0018 T02110206
KEST 180944Z AUTO 00000KT 6SM -RA BR BKN055 OVC070 21/21 A2992 RMK AO2 LTG DSNT S AND W P0016 T02110206
KEST 180923Z AUTO 31003KT 2SM +RA BR SCT045 OVC065 21/21 A2992 RMK AO2 P0011 T02110206
KEST 180852Z AUTO 29006KT 5SM -RA BR FEW044 OVC065 21/21 A2992 RMK AO2 LTG DSNT W SLP122 P0035 60081 T02110206 51014
KEST 180821Z AUTO 31003KT 3SM -RA BR BKN038 BKN050 OVC065 21/21 A2991 RMK AO2 P0030 T02060206
KEST 180806Z AUTO 30008KT 1 3/4SM +RA BR SCT034 OVC055 21/21 A2992 RMK AO2 VIS 1V3 P0018 T02110211
KEST 180752Z AUTO 32008KT 4SM -RA BR SCT041 OVC055 21/21 A2991 RMK AO2 LTG DSNT SW SLP118 P0033 T02110211
KEST 180743Z AUTO 33008KT 7SM -RA SCT039 OVC060 21/21 A2990 RMK AO2 P0028 T02110211
KEST 180731Z AUTO 35007KT 2SM +RA BR BKN043 BKN070 OVC090 21/21 A2990 RMK AO2 LTG DSNT N PRESFR P0025 T02110211
KEST 180723Z AUTO 32008KT 1 3/4SM VCTS +RA BR SCT041 BKN065 OVC110 21/21 A2991 RMK AO2 VIS 1 1/4V5 LTG DSNT N P0018 T02110211
KEST 180717Z AUTO 31006KT 3SM VCTS +RA BR FEW041 BKN070 OVC110 22/21 A2991 RMK AO2 LTG DSNT E P0009 T02170211
KEST 180652Z AUTO 32003KT 4SM RA BR SCT075 BKN090 OVC110 22/22 A2992 RMK AO2 LTG DSNT SW RAB14 SLP119 P0013 T02170217
KEST 180629Z AUTO 24006KT 5SM RA BR SCT009 BKN080 OVC100 22/22 A2994 RMK AO2 LTG DSNT E AND S RAB14 P0004 T02170217
KEST 180621Z AUTO 25007KT 5SM VCTS RA BR SCT008 SCT020 BKN080 22/21 A2993 RMK AO2 LTG DSNT E AND S RAB14 PRESRR P0003 T02170211
KEST 180614Z AUTO 23006KT 8SM VCTS -RA FEW020 BKN080 BKN110 22/21 A2992 RMK AO2 LTG DSNT ALQDS RAB14 PRESRR P0001 T02170211
KEST 180552Z AUTO 02005KT 10SM FEW090 BKN110 22/21 A2988 RMK AO2 PK WND 30026/0515 WSHFT 0454 LTG DSNT NE AND SE AND SW RAB0454E48 SLP107 P0016 60016 T02170211 10283 20217 403170217 53009
KEST 180528Z AUTO 33010KT 4SM -RA BR FEW007 SCT025 BKN065 22/22 A2988 RMK AO2 PK WND 30026/0515 WSHFT 0454 LTG DSNT ALQDS RAB0454 P0016 T02170217
KEST 180508Z AUTO 29014KT 5SM VCTS +RA BR FEW006 BKN026 OVC060 23/22 A2991 RMK AO2 WSHFT 0454 LTG DSNT ALQDS RAB0454 PRESRR P0009 T02280222
KEST 180459Z AUTO 30015KT 6SM VCTS RA BR FEW026 SCT045 OVC060 23/22 A2988 RMK AO2 LTG DSNT NW-NE RAB54 PRESRR P0003 T02330222
KEST 180452Z AUTO 01008KT 10SM FEW049 OVC060 24/22 A2985 RMK AO2 LTG DSNT W-NE RAB0355E10 SLP097 P0000 T02390222
KEST 180436Z AUTO 03005KT 10SM BKN060 OVC075 24/22 A2985 RMK AO2 LTG DSNT ALQDS RAB0355E10 P0000 T02390222
KEST 180413Z AUTO 35009KT 10SM VCTS BKN060 OVC080 24/22 A2986 RMK AO2 LTG DSNT SW-N RAB0355E10 P0000 T02440217
KEST 180352Z AUTO 19006KT 10SM SCT060 BKN080 BKN095 25/21 A2986 RMK AO2 LTG DSNT W AND NW SLP098 T02500211
KEST 180252Z AUTO 21004KT 10SM SCT060 BKN080 26/21 A2985 RMK AO2 SLP097 T02560211 53004
KEST 180152Z AUTO 17007KT 10SM BKN055 27/21 A2984 RMK AO2 SLP092 T02670211
KEST 180052Z AUTO 22009KT 10SM FEW120 28/21 A2983 RMK AO2 SLP090 T02830206
KEST 172352Z AUTO 21009KT 10SM BKN090 OVC100 28/21 A2984 RMK AO2 SLP094 60000 T02830211 10317 20283 56003
KEST 172252Z AUTO 22009KT 10SM OVC090 29/20 A2984 RMK AO2 SLP095 T02940200
KEST 172152Z AUTO 22014G24KT 10SM FEW110 31/21 A2984 RMK AO2 SLP092 T03110211
KEST 172052Z AUTO 22013G23KT 10SM CLR 30/21 A2985 RMK AO2 SLP096 60000 T03000206 52003
KEST 171952Z AUTO 22017G26KT 10SM FEW120 30/21 A2984 RMK AO2 PK WND 23026/1947 SLP094 T03000206
KEST 171852Z AUTO 23017KT 10SM CLR 31/21 A2984 RMK AO2 PK WND 21028/1800 RAE03 SLP093 P0000 T03060211
KEST 171752Z AUTO 21018G24KT 10SM -RA CLR 31/22 A2984 RMK AO2 PK WND 21026/1744 RAB43 SLP092 P0000 60000 T03110217 10311 20228 53001
KEST 171652Z AUTO 22016G24KT 10SM CLR 29/22 A2983 RMK AO2 SLP089 T02940217
KEST 171552Z AUTO 20016KT 10SM CLR 29/22 A2983 RMK AO2 SLP090 T02890217
KEST 171452Z AUTO 20014G22KT 10SM CLR 28/22 A2983 RMK AO2 SLP091 T02780217 50002
KEST 171352Z AUTO 21012G22KT 10SM SCT095 26/21 A2984 RMK AO2 SLP094 T02560211
KEST 171252Z AUTO 20009KT 10SM CLR 23/21 A2984 RMK AO2 SLP094 T02330211
KEST 171152Z AUTO 18010KT 10SM SCT095 23/21 A2983 RMK AO2 SLP088 70003 T02280206 10250 20222 51008
KEST 171052Z AUTO 19010KT 10SM CLR 23/21 A2982 RMK AO2 SLP086 T02280206
KEST 170952Z AUTO 18010KT 10SM CLR 23/21 A2981 RMK AO2 SLP083 T02280206
KEST 170852Z AUTO 18011KT 10SM CLR 23/21 A2980 RMK AO2 SLP079 T02280206 54000
KEST 170752Z AUTO 18010KT 10SM CLR 23/20 A2980 RMK AO2 SLP078 T02330200
KEST 170652Z AUTO 19010KT 10SM CLR 24/21 A2981 RMK AO2 SLP081 T02390206
KEST 170552Z AUTO 18010KT 10SM CLR 25/21 A2980 RMK AO2 SLP080 T02500206 10311 20250 403220211 50013
KEST 170452Z AUTO 18013KT 10SM CLR 26/21 A2980 RMK AO2 SLP081 T02560211
KEST 170352Z AUTO 17012KT 10SM CLR 26/21 A2979 RMK AO2 SLP078 T02610211